createdAt,value
2019-03-01T00:00:21.919Z,16.90
2019-03-01T00:02:50.575Z,17.07
2019-03-01T00:05:33.918Z,15.87
2019-03-01T00:08:09.927Z,16.20
2019-03-01T00:11:09.737Z,16.40
2019-03-01T00:13:44.481Z,16.30
2019-03-01T00:16:39.038Z,16.77
2019-03-01T00:19:34.694Z,16.40
2019-03-01T00:22:08.746Z,16.43
2019-03-01T00:25:00.878Z,17.40
2019-03-01T00:27:40.945Z,18.23
2019-03-01T00:30:24.521Z,18.17
2019-03-01T00:32:56.253Z,18.57
2019-03-01T00:35:47.674Z,18.23
2019-03-01T00:38:34.057Z,20.37
2019-03-01T00:41:21.753Z,19.80
2019-03-01T00:43:56.125Z,18.33
2019-03-01T00:46:24.525Z,19.23
2019-03-01T00:48:53.119Z,19.20
2019-03-01T00:51:21.594Z,22.17
2019-03-01T00:53:50.255Z,18.57
2019-03-01T00:56:18.670Z,20.13
2019-03-01T00:58:47.236Z,20.33
2019-03-01T01:01:15.625Z,24.20
2019-03-01T01:03:44.279Z,20.33
2019-03-01T01:06:12.920Z,21.80
2019-03-01T01:08:41.311Z,21.37
2019-03-01T01:11:09.707Z,35.90
2019-03-01T01:13:38.086Z,21.03
2019-03-01T01:16:06.509Z,22.77
2019-03-01T01:18:35.172Z,23.90
2019-03-01T01:21:03.864Z,20.90
2019-03-01T01:23:32.659Z,25.50
2019-03-01T01:26:01.545Z,22.10
2019-03-01T01:28:30.222Z,19.97
2019-03-01T01:30:58.625Z,18.60
2019-03-01T01:33:27.203Z,20.73
2019-03-01T01:35:55.602Z,19.10
2019-03-01T01:38:24.166Z,19.70
2019-03-01T01:40:52.567Z,19.63
2019-03-01T01:43:21.034Z,21.50
2019-03-01T01:45:49.448Z,22.60
2019-03-01T01:48:18.184Z,19.33
2019-03-01T01:50:46.587Z,20.77
2019-03-01T01:53:14.981Z,18.90
2019-03-01T01:55:43.724Z,24.83
2019-03-01T01:58:12.221Z,18.93
2019-03-01T02:00:40.891Z,20.30
2019-03-01T02:03:09.578Z,18.33
2019-03-01T02:05:38.477Z,18.90
2019-03-01T02:08:06.999Z,21.93
2019-03-01T02:10:36.994Z,21.80
2019-03-01T02:13:05.475Z,20.93
2019-03-01T02:15:33.868Z,21.77
2019-03-01T02:18:02.516Z,19.77
2019-03-01T02:20:30.909Z,21.87
2019-03-01T02:22:59.298Z,18.30
2019-03-01T02:25:27.692Z,20.50
2019-03-01T02:27:56.110Z,19.70
2019-03-01T02:30:39.461Z,19.10
2019-03-01T02:33:08.153Z,18.40
2019-03-01T02:35:36.550Z,19.73
2019-03-01T02:38:05.323Z,20.20
2019-03-01T02:40:37.215Z,20.30
2019-03-01T02:43:06.198Z,19.60
2019-03-01T02:45:34.603Z,17.90
2019-03-01T02:48:03.003Z,20.53
2019-03-01T02:50:31.401Z,18.90
2019-03-01T02:52:59.946Z,18.63
2019-03-01T02:55:28.625Z,21.20
2019-03-01T02:57:57.033Z,18.83
2019-03-01T03:00:28.184Z,19.47
2019-03-01T03:02:56.751Z,19.27
2019-03-01T03:05:25.210Z,18.80
2019-03-01T03:08:04.172Z,18.93
2019-03-01T03:10:32.890Z,19.27
2019-03-01T03:13:04.112Z,20.37
2019-03-01T03:15:34.557Z,19.97
2019-03-01T03:18:03.238Z,21.10
2019-03-01T03:20:32.128Z,19.97
2019-03-01T03:23:00.819Z,19.60
2019-03-01T03:25:29.216Z,19.10
2019-03-01T03:27:57.631Z,21.60
2019-03-01T03:30:26.202Z,20.67
2019-03-01T03:32:54.589Z,19.60
2019-03-01T03:35:23.233Z,21.03
2019-03-01T03:37:51.916Z,19.93
2019-03-01T03:40:20.322Z,19.63
2019-03-01T03:42:49.076Z,24.10
2019-03-01T03:45:18.686Z,21.40
2019-03-01T03:47:47.244Z,19.97
2019-03-01T03:50:16.461Z,20.87
2019-03-01T03:52:44.974Z,20.50
2019-03-01T03:55:15.757Z,23.60
2019-03-01T03:57:44.196Z,22.90
2019-03-01T04:00:18.028Z,20.53
2019-03-01T04:02:46.544Z,19.70
2019-03-01T04:05:14.942Z,19.23
2019-03-01T04:07:43.341Z,18.40
2019-03-01T04:10:12.290Z,19.10
2019-03-01T04:12:40.692Z,20.33
2019-03-01T04:15:14.273Z,22.17
2019-03-01T04:17:43.279Z,22.50
2019-03-01T04:20:16.678Z,19.10
2019-03-01T04:22:45.377Z,19.33
2019-03-01T04:25:13.850Z,17.80
2019-03-01T04:27:42.342Z,17.20
2019-03-01T04:30:13.792Z,19.00
2019-03-01T04:32:42.209Z,19.03
2019-03-01T04:35:10.938Z,19.60
2019-03-01T04:37:39.391Z,18.13
2019-03-01T04:40:10.456Z,18.80
2019-03-01T04:42:38.962Z,17.80
2019-03-01T04:45:10.900Z,21.43
2019-03-01T04:47:39.472Z,20.10
2019-03-01T04:50:09.992Z,19.27
2019-03-01T04:52:38.919Z,21.43
2019-03-01T04:55:16.220Z,22.50
2019-03-01T04:57:44.713Z,19.37
2019-03-01T05:00:15.842Z,19.80
2019-03-01T05:02:44.434Z,19.50
2019-03-01T05:05:14.146Z,20.03
2019-03-01T05:07:42.694Z,20.60
2019-03-01T05:10:12.892Z,18.30
2019-03-01T05:12:41.294Z,19.77
2019-03-01T05:15:14.542Z,21.20
2019-03-01T05:17:43.718Z,23.30
2019-03-01T05:20:12.156Z,21.47
2019-03-01T05:22:40.575Z,22.13
2019-03-01T05:25:10.902Z,23.60
2019-03-01T05:27:39.290Z,22.77
2019-03-01T05:30:13.843Z,21.60
2019-03-01T05:32:42.230Z,24.00
2019-03-01T05:35:10.974Z,22.10
2019-03-01T05:37:39.529Z,22.73
2019-03-01T05:40:11.124Z,22.07
2019-03-01T05:42:39.781Z,23.03
2019-03-01T05:45:11.209Z,22.87
2019-03-01T05:47:39.605Z,24.63
2019-03-01T05:50:11.101Z,27.30
2019-03-01T05:52:39.501Z,24.07
2019-03-01T05:55:09.448Z,23.47
2019-03-01T05:57:39.377Z,22.80
2019-03-01T06:00:09.918Z,22.27
2019-03-01T06:02:46.856Z,26.10
2019-03-01T06:05:15.623Z,24.53
2019-03-01T06:07:52.884Z,25.00
2019-03-01T06:10:27.075Z,27.33
2019-03-01T06:13:04.564Z,27.93
2019-03-01T06:15:39.382Z,23.83
2019-03-01T06:18:10.827Z,24.43
2019-03-01T06:20:57.338Z,25.13
2019-03-01T06:23:37.836Z,25.13
2019-03-01T06:26:21.304Z,29.30
2019-03-01T06:29:04.634Z,27.20
2019-03-01T06:32:00.224Z,25.23
2019-03-01T06:34:44.133Z,28.20
2019-03-01T06:37:21.571Z,28.50
2019-03-01T06:40:23.146Z,29.60
2019-03-01T06:42:57.633Z,28.20
2019-03-01T06:45:37.978Z,25.80
2019-03-01T06:48:06.375Z,27.03
2019-03-01T06:50:42.356Z,26.80
2019-03-01T06:53:10.741Z,27.00
2019-03-01T06:55:41.539Z,32.77
2019-03-01T06:58:13.017Z,36.10
2019-03-01T07:00:49.825Z,36.33
2019-03-01T07:03:13.512Z,39.50
2019-03-01T07:05:42.018Z,46.53
2019-03-01T07:08:10.720Z,50.67
2019-03-01T07:10:39.104Z,48.57
2019-03-01T07:13:07.495Z,52.60
2019-03-01T07:15:35.909Z,60.50
2019-03-01T07:18:04.305Z,60.00
2019-03-01T07:20:32.764Z,62.83
2019-03-01T07:23:01.152Z,60.10
2019-03-01T07:25:29.567Z,76.53
2019-03-01T07:27:58.043Z,70.90
2019-03-01T07:30:26.453Z,86.27
2019-03-01T07:32:54.889Z,86.07
2019-03-01T07:35:23.335Z,85.27
2019-03-01T07:37:51.740Z,85.40
2019-03-01T07:40:20.138Z,89.23
2019-03-01T07:42:48.620Z,95.60
2019-03-01T07:45:17.040Z,93.20
2019-03-01T07:47:45.426Z,86.30
2019-03-01T07:50:14.393Z,89.50
2019-03-01T07:52:42.941Z,85.17
2019-03-01T07:55:12.017Z,91.60
2019-03-01T07:57:40.415Z,83.90
2019-03-01T08:00:14.917Z,106.63
2019-03-01T08:02:45.559Z,85.37
2019-03-01T08:05:16.202Z,93.57
2019-03-01T08:07:44.527Z,94.23
2019-03-01T08:10:20.634Z,99.47
2019-03-01T08:12:43.905Z,103.20
2019-03-01T08:15:16.498Z,104.43
2019-03-01T08:17:44.899Z,126.03
2019-03-01T08:20:19.974Z,118.47
2019-03-01T08:22:49.628Z,126.80
2019-03-01T08:25:23.712Z,130.77
2019-03-01T08:27:50.525Z,138.50
2019-03-01T08:30:19.242Z,138.93
2019-03-01T08:32:47.650Z,148.63
2019-03-01T08:35:17.689Z,156.77
2019-03-01T08:37:46.087Z,141.40
2019-03-01T08:40:18.811Z,149.87
2019-03-01T08:42:47.270Z,139.80
2019-03-01T08:45:18.245Z,150.50
2019-03-01T08:47:48.629Z,142.47
2019-03-01T08:50:17.757Z,144.07
2019-03-01T08:52:47.022Z,149.27
2019-03-01T08:55:21.531Z,141.80
2019-03-01T08:57:49.940Z,144.10
2019-03-01T09:00:23.075Z,136.83
2019-03-01T09:02:53.390Z,142.03
2019-03-01T09:05:21.776Z,134.60
2019-03-01T09:07:50.529Z,144.03
2019-03-01T09:10:19.036Z,127.97
2019-03-01T09:12:47.697Z,130.80
2019-03-01T09:15:16.565Z,132.77
2019-03-01T09:17:44.995Z,128.10
2019-03-01T09:20:16.764Z,131.60
2019-03-01T09:22:45.234Z,135.17
2019-03-01T09:25:15.430Z,133.20
2019-03-01T09:27:44.212Z,137.90
2019-03-01T09:30:18.390Z,141.97
2019-03-01T09:32:46.866Z,139.50
2019-03-01T09:35:25.691Z,149.90
2019-03-01T09:37:54.393Z,161.37
2019-03-01T09:40:25.561Z,156.90
2019-03-01T09:42:53.099Z,166.13
2019-03-01T09:45:21.809Z,179.97
2019-03-01T09:47:50.494Z,170.40
2019-03-01T09:50:18.909Z,156.97
2019-03-01T09:52:47.331Z,159.03
2019-03-01T09:55:15.720Z,150.07
2019-03-01T09:57:44.422Z,151.03
2019-03-01T10:00:24.711Z,165.63
2019-03-01T10:02:53.361Z,160.70
2019-03-01T10:05:22.045Z,151.73
2019-03-01T10:07:50.444Z,145.60
2019-03-01T10:10:30.546Z,135.80
2019-03-01T10:12:59.082Z,146.27
2019-03-01T10:15:27.853Z,142.17
2019-03-01T10:17:56.580Z,141.70
2019-03-01T10:20:26.119Z,163.77
2019-03-01T10:22:54.837Z,152.37
2019-03-01T10:25:23.772Z,158.83
2019-03-01T10:27:52.222Z,156.73
2019-03-01T10:30:26.953Z,143.07
2019-03-01T10:32:55.429Z,133.83
2019-03-01T10:35:23.816Z,140.53
2019-03-01T10:37:53.672Z,140.57
2019-03-01T10:40:26.834Z,129.07
2019-03-01T10:42:55.232Z,139.63
2019-03-01T10:45:28.714Z,142.93
2019-03-01T10:47:57.579Z,135.73
2019-03-01T10:50:26.102Z,123.03
2019-03-01T10:52:54.836Z,134.07
2019-03-01T10:55:23.301Z,122.23
2019-03-01T10:57:52.055Z,117.60
2019-03-01T11:00:28.287Z,114.73
2019-03-01T11:02:57.660Z,110.83
2019-03-01T11:05:26.794Z,104.87
2019-03-01T11:07:56.132Z,109.93
2019-03-01T11:10:29.704Z,103.70
2019-03-01T11:12:58.166Z,101.07
2019-03-01T11:15:27.024Z,106.53
2019-03-01T11:17:55.529Z,96.37
2019-03-01T11:20:25.094Z,95.23
2019-03-01T11:22:53.798Z,100.57
2019-03-01T11:25:24.687Z,90.73
2019-03-01T11:27:53.081Z,101.47
2019-03-01T11:30:31.123Z,92.53
2019-03-01T11:33:02.390Z,94.20
2019-03-01T11:35:31.086Z,92.37
2019-03-01T11:37:59.768Z,100.13
2019-03-01T11:40:33.670Z,85.63
2019-03-01T11:43:02.581Z,86.17
2019-03-01T11:45:31.049Z,98.80
2019-03-01T11:47:59.645Z,81.83
2019-03-01T11:50:28.433Z,84.83
2019-03-01T11:52:57.212Z,92.17
2019-03-01T11:55:25.964Z,100.83
2019-03-01T11:57:54.377Z,97.97
2019-03-01T12:00:28.031Z,106.00
2019-03-01T12:02:56.566Z,110.27
2019-03-01T12:05:25.161Z,127.77
2019-03-01T12:07:53.654Z,121.00
2019-03-01T12:10:25.390Z,129.90
2019-03-01T12:12:55.304Z,108.27
2019-03-01T12:15:23.705Z,112.80
2019-03-01T12:17:52.157Z,113.67
2019-03-01T12:20:22.499Z,128.27
2019-03-01T12:22:50.995Z,116.50
2019-03-01T12:25:19.456Z,110.10
2019-03-01T12:27:47.895Z,116.90
2019-03-01T12:30:18.435Z,102.10
2019-03-01T12:32:46.899Z,100.07
2019-03-01T12:35:15.625Z,107.17
2019-03-01T12:37:44.387Z,105.43
2019-03-01T12:40:15.881Z,110.57
2019-03-01T12:42:44.298Z,99.57
2019-03-01T12:45:15.166Z,95.53
2019-03-01T12:47:44.074Z,102.10
2019-03-01T12:50:14.097Z,81.27
2019-03-01T12:52:43.044Z,81.30
2019-03-01T12:55:14.462Z,74.80
2019-03-01T12:57:42.864Z,71.77
2019-03-01T13:00:14.619Z,77.03
2019-03-01T13:02:43.353Z,84.03
2019-03-01T13:05:13.505Z,71.23
2019-03-01T13:07:41.890Z,72.80
2019-03-01T13:10:18.932Z,70.90
2019-03-01T13:12:47.347Z,66.47
2019-03-01T13:15:15.815Z,62.97
2019-03-01T13:17:44.586Z,66.13
2019-03-01T13:20:15.316Z,69.30
2019-03-01T13:22:43.719Z,62.70
2019-03-01T13:25:12.440Z,66.90
2019-03-01T13:27:40.976Z,63.93
2019-03-01T13:30:20.951Z,69.10
2019-03-01T13:32:49.339Z,61.80
2019-03-01T13:35:22.407Z,64.80
2019-03-01T13:37:52.046Z,57.67
2019-03-01T13:40:20.918Z,52.67
2019-03-01T13:42:51.747Z,60.70
2019-03-01T13:45:25.643Z,59.27
2019-03-01T13:47:54.074Z,49.20
2019-03-01T13:50:23.177Z,53.63
2019-03-01T13:52:51.906Z,51.50
2019-03-01T13:55:22.166Z,49.13
2019-03-01T13:57:51.362Z,47.30
2019-03-01T14:00:21.410Z,58.73
2019-03-01T14:02:49.828Z,58.67
2019-03-01T14:05:18.668Z,63.23
2019-03-01T14:07:48.105Z,65.93
2019-03-01T14:10:19.658Z,71.60
2019-03-01T14:12:48.049Z,71.73
2019-03-01T14:15:17.696Z,87.43
2019-03-01T14:17:46.148Z,99.53
2019-03-01T14:20:20.553Z,99.93
2019-03-01T14:22:47.815Z,102.93
2019-03-01T14:25:18.452Z,126.67
2019-03-01T14:27:47.417Z,122.00
2019-03-01T14:30:30.319Z,112.90
2019-03-01T14:32:57.532Z,121.33
2019-03-01T14:35:27.174Z,108.83
2019-03-01T14:37:55.924Z,98.37
2019-03-01T14:40:24.439Z,115.47
2019-03-01T14:42:52.828Z,126.07
2019-03-01T14:45:25.482Z,118.20
2019-03-01T14:47:53.905Z,119.67
2019-03-01T14:50:24.234Z,120.23
2019-03-01T14:52:56.641Z,113.67
2019-03-01T14:55:40.780Z,103.17
2019-03-01T14:58:12.679Z,108.70
2019-03-01T15:00:49.593Z,124.33
2019-03-01T15:03:30.667Z,121.73
2019-03-01T15:05:59.668Z,122.37
2019-03-01T15:08:28.137Z,118.57
2019-03-01T15:10:58.043Z,109.30
2019-03-01T15:13:27.854Z,121.70
2019-03-01T15:15:57.113Z,123.03
2019-03-01T15:18:29.014Z,116.70
2019-03-01T15:21:01.238Z,128.40
2019-03-01T15:23:26.540Z,127.20
2019-03-01T15:25:55.207Z,121.20
2019-03-01T15:28:23.647Z,118.10
2019-03-01T15:30:52.144Z,119.93
2019-03-01T15:33:20.927Z,122.83
2019-03-01T15:35:49.432Z,124.00
2019-03-01T15:38:18.546Z,136.57
2019-03-01T15:40:46.968Z,117.40
2019-03-01T15:43:16.578Z,118.23
2019-03-01T15:45:45.154Z,115.33
2019-03-01T15:48:13.540Z,102.70
2019-03-01T15:50:42.004Z,88.50
2019-03-01T15:53:10.497Z,93.23
2019-03-01T15:55:38.902Z,97.53
2019-03-01T15:58:09.012Z,77.93
2019-03-01T16:00:37.780Z,72.83
2019-03-01T16:03:06.291Z,67.33
2019-03-01T16:05:37.393Z,58.23
2019-03-01T16:08:05.546Z,62.37
2019-03-01T16:10:36.166Z,54.83
2019-03-01T16:13:08.398Z,52.13
2019-03-01T16:15:38.712Z,52.30
2019-03-01T16:18:05.833Z,48.30
2019-03-01T16:20:34.531Z,48.17
2019-03-01T16:23:03.117Z,40.87
2019-03-01T16:25:31.547Z,44.50
2019-03-01T16:28:01.163Z,51.40
2019-03-01T16:30:30.616Z,43.80
2019-03-01T16:32:59.037Z,38.70
2019-03-01T16:35:27.541Z,35.27
2019-03-01T16:38:00.981Z,37.73
2019-03-01T16:40:27.817Z,34.73
2019-03-01T16:42:56.419Z,34.40
2019-03-01T16:45:25.049Z,42.43
2019-03-01T16:47:53.571Z,46.33
2019-03-01T16:50:22.106Z,40.33
2019-03-01T16:52:50.590Z,37.50
2019-03-01T16:55:30.256Z,33.93
2019-03-01T16:58:06.756Z,40.70
2019-03-01T17:00:29.142Z,40.73
2019-03-01T17:03:16.850Z,41.23
2019-03-01T17:05:43.268Z,42.53
2019-03-01T17:08:11.661Z,39.77
2019-03-01T17:10:40.055Z,38.63
2019-03-01T17:13:08.542Z,42.00
2019-03-01T17:15:36.949Z,38.63
2019-03-01T17:18:11.130Z,38.93
2019-03-01T17:20:38.382Z,38.00
2019-03-01T17:23:06.177Z,34.50
2019-03-01T17:25:34.877Z,39.17
2019-03-01T17:28:03.263Z,38.70
2019-03-01T17:30:32.066Z,40.60
2019-03-01T17:33:01.373Z,40.17
2019-03-01T17:35:29.805Z,38.03
2019-03-01T17:37:58.356Z,40.87
2019-03-01T17:40:29.250Z,37.30
2019-03-01T17:42:57.404Z,42.50
2019-03-01T17:45:26.690Z,36.57
2019-03-01T17:47:55.578Z,39.47
2019-03-01T17:50:24.108Z,44.13
2019-03-01T17:52:52.490Z,38.20
2019-03-01T17:55:28.102Z,39.43
2019-03-01T17:57:56.660Z,44.70
2019-03-01T18:00:35.702Z,37.00
2019-03-01T18:03:04.766Z,39.43
2019-03-01T18:05:33.393Z,35.30
2019-03-01T18:08:03.702Z,35.70
2019-03-01T18:10:33.562Z,41.00
2019-03-01T18:13:02.146Z,39.40
2019-03-01T18:15:31.507Z,34.07
2019-03-01T18:18:00.277Z,35.70
2019-03-01T18:20:28.664Z,42.50
2019-03-01T18:22:59.352Z,39.80
2019-03-01T18:25:27.603Z,39.13
2019-03-01T18:27:56.015Z,32.97
2019-03-01T18:30:26.942Z,38.63
2019-03-01T18:32:55.478Z,35.87
2019-03-01T18:35:24.006Z,40.33
2019-03-01T18:38:09.450Z,33.67
2019-03-01T18:40:37.883Z,33.27
2019-03-01T18:43:09.776Z,30.70
2019-03-01T18:45:38.509Z,30.80
2019-03-01T18:48:08.721Z,30.47
2019-03-01T18:50:39.556Z,28.50
2019-03-01T18:53:08.043Z,28.90
2019-03-01T18:55:36.817Z,31.20
2019-03-01T18:58:05.700Z,28.83
2019-03-01T19:00:37.489Z,27.33
2019-03-01T19:03:07.018Z,27.83
2019-03-01T19:05:36.530Z,25.73
2019-03-01T19:08:06.117Z,24.43
2019-03-01T19:10:35.299Z,25.30
2019-03-01T19:13:03.768Z,25.60
2019-03-01T19:15:32.323Z,26.03
2019-03-01T19:18:00.742Z,25.27
2019-03-01T19:20:41.075Z,26.13
2019-03-01T19:23:07.876Z,26.40
2019-03-01T19:25:36.325Z,25.83
2019-03-01T19:28:04.730Z,25.10
2019-03-01T19:30:33.142Z,24.67
2019-03-01T19:33:02.189Z,26.70
2019-03-01T19:35:31.622Z,24.50
2019-03-01T19:38:00.356Z,24.77
2019-03-01T19:40:28.755Z,25.20
2019-03-01T19:42:57.473Z,24.40
2019-03-01T19:45:26.413Z,25.33
2019-03-01T19:48:01.707Z,24.77
2019-03-01T19:50:27.535Z,25.80
2019-03-01T19:52:56.188Z,25.07
2019-03-01T19:55:25.062Z,28.13
2019-03-01T19:57:53.861Z,25.30
2019-03-01T20:00:24.774Z,25.03
2019-03-01T20:02:53.433Z,26.20
2019-03-01T20:05:36.654Z,24.67
2019-03-01T20:08:05.182Z,28.47
2019-03-01T20:10:33.585Z,26.37
2019-03-01T20:13:02.241Z,26.33
2019-03-01T20:15:31.586Z,26.37
2019-03-01T20:17:59.994Z,30.83
2019-03-01T20:20:29.780Z,28.20
2019-03-01T20:23:00.164Z,26.93
2019-03-01T20:25:28.564Z,27.70
2019-03-01T20:27:56.964Z,28.43
2019-03-01T20:30:30.703Z,28.07
2019-03-01T20:32:59.462Z,28.97
2019-03-01T20:35:28.515Z,27.90
2019-03-01T20:38:00.062Z,28.07
2019-03-01T20:40:28.325Z,28.40
2019-03-01T20:43:00.532Z,28.30
2019-03-01T20:45:30.188Z,31.30
2019-03-01T20:47:59.516Z,33.93
2019-03-01T20:50:27.895Z,31.30
2019-03-01T20:52:56.767Z,31.37
2019-03-01T20:55:25.198Z,30.73
2019-03-01T20:57:53.625Z,31.47
2019-03-01T21:00:26.216Z,30.50
2019-03-01T21:02:53.918Z,32.93
2019-03-01T21:05:25.007Z,31.23
2019-03-01T21:07:53.794Z,32.30
2019-03-01T21:10:25.185Z,30.17
2019-03-01T21:12:53.750Z,31.50
2019-03-01T21:15:22.790Z,29.90
2019-03-01T21:17:52.980Z,29.87
2019-03-01T21:20:21.472Z,30.30
2019-03-01T21:22:49.895Z,30.27
2019-03-01T21:25:20.316Z,30.47
2019-03-01T21:27:48.839Z,30.53
2019-03-01T21:30:28.120Z,31.80
2019-03-01T21:32:56.594Z,35.83
2019-03-01T21:35:25.334Z,30.37
2019-03-01T21:37:55.048Z,28.60
2019-03-01T21:40:23.541Z,29.17
2019-03-01T21:42:52.726Z,30.33
2019-03-01T21:45:25.162Z,29.30
2019-03-01T21:47:53.561Z,30.70
2019-03-01T21:50:22.268Z,29.77
2019-03-01T21:52:51.077Z,28.57
2019-03-01T21:55:28.200Z,26.00
2019-03-01T21:57:55.054Z,24.53
2019-03-01T22:00:29.646Z,23.57
2019-03-01T22:02:57.603Z,22.30
2019-03-01T22:05:27.096Z,26.03
2019-03-01T22:07:55.561Z,23.30
2019-03-01T22:10:23.974Z,25.47
2019-03-01T22:12:52.357Z,25.47
2019-03-01T22:15:27.087Z,25.53
2019-03-01T22:17:56.268Z,25.13
2019-03-01T22:20:24.893Z,24.60
2019-03-01T22:22:53.727Z,25.93
2019-03-01T22:25:22.326Z,26.83
2019-03-01T22:27:50.721Z,25.70
2019-03-01T22:30:31.025Z,26.43
2019-03-01T22:32:59.443Z,25.60
2019-03-01T22:35:28.003Z,26.23
2019-03-01T22:37:56.414Z,24.90
2019-03-01T22:40:27.908Z,26.83
2019-03-01T22:42:55.182Z,24.37
2019-03-01T22:45:23.764Z,24.83
2019-03-01T22:47:52.166Z,26.67
2019-03-01T22:50:21.347Z,26.13
2019-03-01T22:52:50.246Z,26.77
2019-03-01T22:55:19.473Z,25.00
2019-03-01T22:57:48.231Z,26.87
2019-03-01T23:00:30.081Z,25.20
2019-03-01T23:02:58.782Z,26.40
2019-03-01T23:05:27.390Z,30.10
2019-03-01T23:07:56.922Z,27.10
2019-03-01T23:10:25.912Z,26.17
2019-03-01T23:12:54.581Z,26.23
2019-03-01T23:15:23.267Z,27.40
2019-03-01T23:17:52.256Z,28.30
2019-03-01T23:20:26.246Z,28.07
2019-03-01T23:22:51.069Z,29.70
2019-03-01T23:25:19.493Z,25.90
2019-03-01T23:27:48.740Z,28.83
2019-03-01T23:30:17.467Z,26.37
2019-03-01T23:32:48.800Z,28.90
2019-03-01T23:35:18.139Z,24.33
2019-03-01T23:37:46.182Z,21.90
2019-03-01T23:40:14.570Z,23.87
2019-03-01T23:42:43.345Z,22.17
2019-03-01T23:45:13.666Z,21.20
2019-03-01T23:47:42.107Z,21.90
2019-03-01T23:50:10.877Z,23.53
2019-03-01T23:52:39.598Z,23.53
2019-03-01T23:55:08.468Z,23.80
2019-03-01T23:57:38.074Z,22.30
